sensor_id;sensor_type;location;lat;lon;timestamp;pressure;altitude;pressure_sealevel;temperature;humidity
59831;BME280;45711;50.108;13.712;2023-07-29T00:01:35;97380.28;;;19.93;77.02
59831;BME280;45711;50.108;13.712;2023-07-29T00:04:01;97378.28;;;19.90;76.93
59831;BME280;45711;50.108;13.712;2023-07-29T00:09:02;97376.78;;;19.76;78.11
59831;BME280;45711;50.108;13.712;2023-07-29T00:11:28;97374.50;;;19.78;77.71
59831;BME280;45711;50.108;13.712;2023-07-29T00:13:54;97374.81;;;20.24;75.56
59831;BME280;45711;50.108;13.712;2023-07-29T00:16:20;97371.72;;;19.91;76.64
59831;BME280;45711;50.108;13.712;2023-07-29T00:18:49;97389.56;;;19.76;77.70
59831;BME280;45711;50.108;13.712;2023-07-29T00:21:15;97381.41;;;19.60;78.33
59831;BME280;45711;50.108;13.712;2023-07-29T00:23:45;97389.66;;;19.20;81.13
59831;BME280;45711;50.108;13.712;2023-07-29T00:26:12;97387.53;;;18.97;82.65
59831;BME280;45711;50.108;13.712;2023-07-29T00:28:38;97388.41;;;19.01;83.42
59831;BME280;45711;50.108;13.712;2023-07-29T00:31:04;97400.53;;;18.92;83.71
59831;BME280;45711;50.108;13.712;2023-07-29T00:33:30;97389.16;;;18.86;84.30
59831;BME280;45711;50.108;13.712;2023-07-29T00:35:55;97386.44;;;19.14;83.28
59831;BME280;45711;50.108;13.712;2023-07-29T00:38:21;97381.63;;;19.07;82.85
59831;BME280;45711;50.108;13.712;2023-07-29T00:40:47;97386.25;;;19.07;83.00
59831;BME280;45711;50.108;13.712;2023-07-29T00:43:14;97373.59;;;19.58;80.82
59831;BME280;45711;50.108;13.712;2023-07-29T00:45:42;97378.59;;;19.41;80.62
59831;BME280;45711;50.108;13.712;2023-07-29T00:48:08;97371.19;;;19.69;79.09
59831;BME280;45711;50.108;13.712;2023-07-29T00:50:34;97368.03;;;19.99;76.98
59831;BME280;45711;50.108;13.712;2023-07-29T00:53:00;97365.13;;;19.76;77.39
59831;BME280;45711;50.108;13.712;2023-07-29T00:55:26;97374.94;;;19.96;77.29
59831;BME280;45711;50.108;13.712;2023-07-29T00:57:52;97366.00;;;19.96;76.70
59831;BME280;45711;50.108;13.712;2023-07-29T01:00:21;97367.25;;;19.82;77.39
59831;BME280;45711;50.108;13.712;2023-07-29T01:02:47;97369.31;;;20.05;76.31
59831;BME280;45711;50.108;13.712;2023-07-29T01:05:15;97360.59;;;19.64;78.18
59831;BME280;45711;50.108;13.712;2023-07-29T01:07:47;97364.34;;;19.00;81.71
59831;BME280;45711;50.108;13.712;2023-07-29T01:10:21;97369.78;;;19.00;82.68
59831;BME280;45711;50.108;13.712;2023-07-29T01:12:56;97372.75;;;18.95;82.66
59831;BME280;45711;50.108;13.712;2023-07-29T01:15:28;97378.50;;;19.21;82.23
59831;BME280;45711;50.108;13.712;2023-07-29T01:18:03;97364.66;;;19.26;81.62
59831;BME280;45711;50.108;13.712;2023-07-29T01:20:33;97371.66;;;18.83;83.11
59831;BME280;45711;50.108;13.712;2023-07-29T01:22:59;97358.34;;;18.78;83.62
59831;BME280;45711;50.108;13.712;2023-07-29T01:25:26;97373.47;;;18.79;84.22
59831;BME280;45711;50.108;13.712;2023-07-29T01:27:55;97364.59;;;18.54;85.57
59831;BME280;45711;50.108;13.712;2023-07-29T01:30:24;97371.50;;;18.52;85.85
59831;BME280;45711;50.108;13.712;2023-07-29T01:32:54;97364.72;;;18.58;85.91
59831;BME280;45711;50.108;13.712;2023-07-29T01:35:25;97360.59;;;18.36;87.13
59831;BME280;45711;50.108;13.712;2023-07-29T01:37:59;97361.59;;;18.44;86.66
59831;BME280;45711;50.108;13.712;2023-07-29T01:40:28;97375.38;;;18.51;86.61
59831;BME280;45711;50.108;13.712;2023-07-29T01:42:54;97370.34;;;18.65;85.51
59831;BME280;45711;50.108;13.712;2023-07-29T01:45:23;97368.84;;;18.40;86.27
59831;BME280;45711;50.108;13.712;2023-07-29T01:47:50;97375.88;;;18.28;87.33
59831;BME280;45711;50.108;13.712;2023-07-29T01:50:15;97373.00;;;18.37;87.17
59831;BME280;45711;50.108;13.712;2023-07-29T01:52:41;97374.84;;;18.33;87.47
59831;BME280;45711;50.108;13.712;2023-07-29T01:55:08;97373.16;;;18.28;87.44
59831;BME280;45711;50.108;13.712;2023-07-29T01:57:35;97377.84;;;18.44;87.03
59831;BME280;45711;50.108;13.712;2023-07-29T02:00:02;97383.28;;;18.31;87.71
59831;BME280;45711;50.108;13.712;2023-07-29T02:02:29;97374.38;;;18.31;87.70
59831;BME280;45711;50.108;13.712;2023-07-29T02:04:55;97369.22;;;18.14;88.03
59831;BME280;45711;50.108;13.712;2023-07-29T02:07:21;97372.25;;;18.24;88.27
59831;BME280;45711;50.108;13.712;2023-07-29T02:09:47;97365.22;;;18.36;86.66
59831;BME280;45711;50.108;13.712;2023-07-29T02:12:13;97377.84;;;18.44;86.97
59831;BME280;45711;50.108;13.712;2023-07-29T02:14:40;97364.47;;;18.23;87.19
59831;BME280;45711;50.108;13.712;2023-07-29T02:17:06;97368.59;;;18.45;87.02
59831;BME280;45711;50.108;13.712;2023-07-29T02:19:32;97368.41;;;18.25;87.65
59831;BME280;45711;50.108;13.712;2023-07-29T02:22:00;97378.56;;;18.28;86.99
59831;BME280;45711;50.108;13.712;2023-07-29T02:24:26;97375.28;;;18.23;86.75
59831;BME280;45711;50.108;13.712;2023-07-29T02:26:52;97375.09;;;18.16;87.46
59831;BME280;45711;50.108;13.712;2023-07-29T02:29:17;97372.50;;;17.82;88.44
59831;BME280;45711;50.108;13.712;2023-07-29T02:31:45;97375.56;;;18.58;86.63
59831;BME280;45711;50.108;13.712;2023-07-29T02:34:11;97368.03;;;18.51;85.46
59831;BME280;45711;50.108;13.712;2023-07-29T02:36:36;97370.09;;;18.82;84.38
59831;BME280;45711;50.108;13.712;2023-07-29T02:39:02;97364.53;;;18.51;84.35
59831;BME280;45711;50.108;13.712;2023-07-29T02:41:28;97371.81;;;18.63;84.67
59831;BME280;45711;50.108;13.712;2023-07-29T02:43:54;97375.94;;;18.84;83.70
59831;BME280;45711;50.108;13.712;2023-07-29T02:46:21;97376.44;;;18.22;85.44
59831;BME280;45711;50.108;13.712;2023-07-29T02:48:49;97383.44;;;18.11;87.14
59831;BME280;45711;50.108;13.712;2023-07-29T02:51:17;97384.91;;;18.08;88.03
59831;BME280;45711;50.108;13.712;2023-07-29T02:53:42;97385.81;;;18.12;87.93
59831;BME280;45711;50.108;13.712;2023-07-29T02:56:08;97385.06;;;18.52;85.99
59831;BME280;45711;50.108;13.712;2023-07-29T02:58:35;97381.06;;;18.74;84.46
59831;BME280;45711;50.108;13.712;2023-07-29T03:01:02;97367.13;;;18.47;85.02
59831;BME280;45711;50.108;13.712;2023-07-29T03:03:28;97372.16;;;18.61;84.67
59831;BME280;45711;50.108;13.712;2023-07-29T03:05:59;97373.81;;;18.38;86.30
59831;BME280;45711;50.108;13.712;2023-07-29T03:08:26;97377.16;;;18.59;86.43
59831;BME280;45711;50.108;13.712;2023-07-29T03:10:51;97380.19;;;18.57;85.93
59831;BME280;45711;50.108;13.712;2023-07-29T03:13:17;97373.50;;;19.23;82.66
59831;BME280;45711;50.108;13.712;2023-07-29T03:15:46;97371.66;;;18.83;83.79
59831;BME280;45711;50.108;13.712;2023-07-29T03:18:12;97372.13;;;18.86;83.82
59831;BME280;45711;50.108;13.712;2023-07-29T03:20:38;97370.22;;;18.74;84.67
59831;BME280;45711;50.108;13.712;2023-07-29T03:23:05;97366.09;;;18.52;85.63
59831;BME280;45711;50.108;13.712;2023-07-29T03:25:30;97371.13;;;18.66;85.15
59831;BME280;45711;50.108;13.712;2023-07-29T03:27:56;97369.28;;;18.42;85.81
59831;BME280;45711;50.108;13.712;2023-07-29T03:30:22;97373.94;;;18.81;83.82
59831;BME280;45711;50.108;13.712;2023-07-29T03:32:48;97371.47;;;18.64;84.41
59831;BME280;45711;50.108;13.712;2023-07-29T03:35:15;97383.28;;;18.44;85.80
59831;BME280;45711;50.108;13.712;2023-07-29T03:37:41;97384.88;;;18.32;87.56
59831;BME280;45711;50.108;13.712;2023-07-29T03:40:09;97382.47;;;18.55;86.57
59831;BME280;45711;50.108;13.712;2023-07-29T03:42:35;97376.53;;;18.66;85.04
59831;BME280;45711;50.108;13.712;2023-07-29T03:45:00;97379.44;;;18.45;86.66
59831;BME280;45711;50.108;13.712;2023-07-29T03:47:26;97373.22;;;18.44;87.53
59831;BME280;45711;50.108;13.712;2023-07-29T03:49:52;97373.28;;;18.72;86.50
59831;BME280;45711;50.108;13.712;2023-07-29T03:52:18;97374.22;;;18.52;86.54
59831;BME280;45711;50.108;13.712;2023-07-29T03:54:47;97365.28;;;19.36;81.60
59831;BME280;45711;50.108;13.712;2023-07-29T03:57:14;97362.75;;;19.43;80.08
59831;BME280;45711;50.108;13.712;2023-07-29T03:59:40;97373.97;;;18.97;83.15
59831;BME280;45711;50.108;13.712;2023-07-29T04:02:05;97383.00;;;18.73;84.51
59831;BME280;45711;50.108;13.712;2023-07-29T04:04:31;97371.47;;;19.64;79.08
59831;BME280;45711;50.108;13.712;2023-07-29T04:06:57;97372.63;;;20.14;74.34
59831;BME280;45711;50.108;13.712;2023-07-29T04:09:23;97370.88;;;19.58;77.36
59831;BME280;45711;50.108;13.712;2023-07-29T04:11:49;97377.28;;;19.98;75.40
59831;BME280;45711;50.108;13.712;2023-07-29T04:14:16;97375.22;;;19.75;76.28
59831;BME280;45711;50.108;13.712;2023-07-29T04:16:45;97373.78;;;19.50;77.74
59831;BME280;45711;50.108;13.712;2023-07-29T04:19:11;97382.09;;;19.57;78.62
59831;BME280;45711;50.108;13.712;2023-07-29T04:21:37;97391.72;;;19.39;79.75
59831;BME280;45711;50.108;13.712;2023-07-29T04:24:03;97384.44;;;19.27;80.75
59831;BME280;45711;50.108;13.712;2023-07-29T04:26:29;97393.00;;;19.13;82.03
59831;BME280;45711;50.108;13.712;2023-07-29T04:28:55;97402.22;;;18.96;83.35
59831;BME280;45711;50.108;13.712;2023-07-29T04:31:24;97395.03;;;19.16;83.17
59831;BME280;45711;50.108;13.712;2023-07-29T04:33:50;97400.53;;;18.92;83.99
59831;BME280;45711;50.108;13.712;2023-07-29T04:36:15;97400.50;;;19.04;83.29
59831;BME280;45711;50.108;13.712;2023-07-29T04:38:41;97395.25;;;18.83;83.86
59831;BME280;45711;50.108;13.712;2023-07-29T04:41:09;97396.50;;;18.86;84.11
59831;BME280;45711;50.108;13.712;2023-07-29T04:43:34;97399.59;;;19.00;84.20
59831;BME280;45711;50.108;13.712;2023-07-29T04:46:00;97396.66;;;18.65;86.30
59831;BME280;45711;50.108;13.712;2023-07-29T04:48:27;97393.34;;;18.83;84.87
59831;BME280;45711;50.108;13.712;2023-07-29T04:50:53;97393.13;;;19.48;79.80
59831;BME280;45711;50.108;13.712;2023-07-29T04:53:21;97403.16;;;19.32;79.87
59831;BME280;45711;50.108;13.712;2023-07-29T04:55:47;97393.91;;;19.33;79.56
59831;BME280;45711;50.108;13.712;2023-07-29T04:58:13;97398.97;;;18.91;83.40
59831;BME280;45711;50.108;13.712;2023-07-29T05:00:38;97395.75;;;18.73;84.74
59831;BME280;45711;50.108;13.712;2023-07-29T05:03:04;97395.97;;;18.68;85.59
59831;BME280;45711;50.108;13.712;2023-07-29T05:05:31;97399.56;;;19.12;84.28
59831;BME280;45711;50.108;13.712;2023-07-29T05:07:57;97389.94;;;19.74;78.91
59831;BME280;45711;50.108;13.712;2023-07-29T05:10:23;97380.88;;;19.54;78.66
59831;BME280;45711;50.108;13.712;2023-07-29T05:12:48;97377.66;;;19.80;76.86
59831;BME280;45711;50.108;13.712;2023-07-29T05:15:14;97372.50;;;19.91;76.41
59831;BME280;45711;50.108;13.712;2023-07-29T05:17:40;97379.75;;;19.87;77.05
59831;BME280;45711;50.108;13.712;2023-07-29T05:20:07;97373.25;;;20.07;75.22
59831;BME280;45711;50.108;13.712;2023-07-29T05:22:34;97370.78;;;20.18;74.59
59831;BME280;45711;50.108;13.712;2023-07-29T05:24:59;97381.50;;;19.95;78.06
59831;BME280;45711;50.108;13.712;2023-07-29T05:27:25;97381.16;;;19.97;77.89
59831;BME280;45711;50.108;13.712;2023-07-29T05:29:51;97386.19;;;20.14;78.78
59831;BME280;45711;50.108;13.712;2023-07-29T05:32:16;97383.75;;;20.09;78.99
59831;BME280;45711;50.108;13.712;2023-07-29T05:34:42;97384.81;;;20.20;77.13
59831;BME280;45711;50.108;13.712;2023-07-29T05:37:08;97369.38;;;20.44;74.39
59831;BME280;45711;50.108;13.712;2023-07-29T05:39:35;97381.28;;;20.20;77.75
59831;BME280;45711;50.108;13.712;2023-07-29T05:42:00;97375.53;;;20.41;76.22
59831;BME280;45711;50.108;13.712;2023-07-29T05:44:29;97378.53;;;20.51;72.40
59831;BME280;45711;50.108;13.712;2023-07-29T05:46:58;97377.19;;;20.45;72.27
59831;BME280;45711;50.108;13.712;2023-07-29T05:49:31;97370.28;;;20.32;74.57
59831;BME280;45711;50.108;13.712;2023-07-29T05:51:57;97369.09;;;20.29;74.04
59831;BME280;45711;50.108;13.712;2023-07-29T05:54:23;97361.44;;;20.35;73.47
59831;BME280;45711;50.108;13.712;2023-07-29T05:56:50;97370.66;;;20.30;74.24
59831;BME280;45711;50.108;13.712;2023-07-29T05:59:16;97365.72;;;20.36;73.08
59831;BME280;45711;50.108;13.712;2023-07-29T06:01:44;97373.97;;;20.40;76.27
59831;BME280;45711;50.108;13.712;2023-07-29T06:04:16;97376.00;;;20.62;72.78
59831;BME280;45711;50.108;13.712;2023-07-29T06:06:42;97376.28;;;20.57;71.95
59831;BME280;45711;50.108;13.712;2023-07-29T06:09:08;97372.88;;;20.44;73.65
59831;BME280;45711;50.108;13.712;2023-07-29T06:11:33;97380.00;;;20.49;72.33
59831;BME280;45711;50.108;13.712;2023-07-29T06:14:01;97369.03;;;20.45;72.00
59831;BME280;45711;50.108;13.712;2023-07-29T06:16:26;97370.88;;;20.41;73.63
59831;BME280;45711;50.108;13.712;2023-07-29T06:18:52;97375.09;;;20.39;73.62
59831;BME280;45711;50.108;13.712;2023-07-29T06:21:18;97375.38;;;20.33;76.07
59831;BME280;45711;50.108;13.712;2023-07-29T06:23:45;97372.63;;;20.49;73.34
59831;BME280;45711;50.108;13.712;2023-07-29T06:26:11;97378.22;;;20.56;73.22
59831;BME280;45711;50.108;13.712;2023-07-29T06:28:36;97375.34;;;20.49;73.54
59831;BME280;45711;50.108;13.712;2023-07-29T06:31:04;97379.09;;;20.45;74.63
59831;BME280;45711;50.108;13.712;2023-07-29T06:33:29;97375.72;;;20.48;74.84
59831;BME280;45711;50.108;13.712;2023-07-29T06:35:55;97369.38;;;20.60;72.32
59831;BME280;45711;50.108;13.712;2023-07-29T06:38:21;97364.44;;;20.65;72.17
59831;BME280;45711;50.108;13.712;2023-07-29T06:40:47;97367.34;;;20.76;73.48
59831;BME280;45711;50.108;13.712;2023-07-29T06:43:13;97368.88;;;20.73;71.90
59831;BME280;45711;50.108;13.712;2023-07-29T06:45:38;97370.34;;;20.71;76.38
59831;BME280;45711;50.108;13.712;2023-07-29T06:48:05;97367.34;;;20.76;74.02
59831;BME280;45711;50.108;13.712;2023-07-29T06:50:31;97364.78;;;20.83;72.97
59831;BME280;45711;50.108;13.712;2023-07-29T06:53:04;97357.84;;;20.86;71.94
59831;BME280;45711;50.108;13.712;2023-07-29T06:55:29;97363.41;;;20.93;72.16
59831;BME280;45711;50.108;13.712;2023-07-29T06:57:55;97359.59;;;20.97;71.85
59831;BME280;45711;50.108;13.712;2023-07-29T07:00:21;97350.38;;;21.02;71.85
59831;BME280;45711;50.108;13.712;2023-07-29T07:02:46;97359.59;;;20.97;70.20
59831;BME280;45711;50.108;13.712;2023-07-29T07:05:16;97364.28;;;21.20;71.56
59831;BME280;45711;50.108;13.712;2023-07-29T07:07:44;97356.25;;;21.04;70.50
59831;BME280;45711;50.108;13.712;2023-07-29T07:10:09;97367.28;;;20.92;71.37
59831;BME280;45711;50.108;13.712;2023-07-29T07:12:35;97354.31;;;21.04;70.65
59831;BME280;45711;50.108;13.712;2023-07-29T07:15:01;97364.22;;;21.58;68.30
59831;BME280;45711;50.108;13.712;2023-07-29T07:17:29;97363.63;;;21.03;69.04
59831;BME280;45711;50.108;13.712;2023-07-29T07:19:58;97363.16;;;21.21;72.35
59831;BME280;45711;50.108;13.712;2023-07-29T07:22:28;97351.53;;;21.01;71.36
59831;BME280;45711;50.108;13.712;2023-07-29T07:24:56;97358.13;;;21.00;69.91
59831;BME280;45711;50.108;13.712;2023-07-29T07:27:24;97344.34;;;21.12;69.66
59831;BME280;45711;50.108;13.712;2023-07-29T07:29:50;97346.28;;;21.80;66.77
59831;BME280;45711;50.108;13.712;2023-07-29T07:32:15;97342.75;;;22.03;66.07
59831;BME280;45711;50.108;13.712;2023-07-29T07:34:41;97347.88;;;21.81;67.76
59831;BME280;45711;50.108;13.712;2023-07-29T07:37:06;97347.34;;;21.49;70.55
59831;BME280;45711;50.108;13.712;2023-07-29T07:42:18;97331.63;;;21.62;70.26
59831;BME280;45711;50.108;13.712;2023-07-29T07:44:43;97333.06;;;21.33;69.01
59831;BME280;45711;50.108;13.712;2023-07-29T07:47:09;97326.63;;;21.68;69.91
59831;BME280;45711;50.108;13.712;2023-07-29T07:49:34;97329.84;;;21.73;69.93
59831;BME280;45711;50.108;13.712;2023-07-29T07:52:00;97318.38;;;21.61;69.91
59831;BME280;45711;50.108;13.712;2023-07-29T07:54:25;97312.53;;;21.36;69.23
59831;BME280;45711;50.108;13.712;2023-07-29T07:56:52;97310.47;;;22.31;68.66
59831;BME280;45711;50.108;13.712;2023-07-29T07:59:18;97316.28;;;22.64;67.01
59831;BME280;45711;50.108;13.712;2023-07-29T08:01:44;97309.44;;;22.13;65.79
59831;BME280;45711;50.108;13.712;2023-07-29T08:04:09;97309.78;;;21.85;66.96
59831;BME280;45711;50.108;13.712;2023-07-29T08:06:35;97311.19;;;22.28;67.19
59831;BME280;45711;50.108;13.712;2023-07-29T08:09:01;97309.94;;;22.52;64.88
59831;BME280;45711;50.108;13.712;2023-07-29T08:11:26;97317.28;;;21.65;67.73
59831;BME280;45711;50.108;13.712;2023-07-29T08:13:53;97320.75;;;21.20;69.04
59831;BME280;45711;50.108;13.712;2023-07-29T08:16:19;97322.13;;;21.52;68.40
59831;BME280;45711;50.108;13.712;2023-07-29T08:18:47;97314.13;;;21.17;68.18
59831;BME280;45711;50.108;13.712;2023-07-29T08:21:13;97313.09;;;21.25;68.21
59831;BME280;45711;50.108;13.712;2023-07-29T08:23:39;97312.22;;;21.41;67.29
59831;BME280;45711;50.108;13.712;2023-07-29T08:26:05;97307.78;;;21.09;68.40
59831;BME280;45711;50.108;13.712;2023-07-29T08:28:33;97300.59;;;21.21;67.80
59831;BME280;45711;50.108;13.712;2023-07-29T08:31:11;97306.75;;;20.95;69.52
59831;BME280;45711;50.108;13.712;2023-07-29T08:43:44;97324.28;;;21.66;67.03
59831;BME280;45711;50.108;13.712;2023-07-29T08:46:19;97309.41;;;22.73;63.83
59831;BME280;45711;50.108;13.712;2023-07-29T08:48:51;97306.91;;;22.01;64.97
59831;BME280;45711;50.108;13.712;2023-07-29T08:51:19;97306.97;;;22.04;65.21
59831;BME280;45711;50.108;13.712;2023-07-29T08:53:47;97311.41;;;21.63;65.87
59831;BME280;45711;50.108;13.712;2023-07-29T08:56:13;97317.47;;;21.53;67.00
59831;BME280;45711;50.108;13.712;2023-07-29T08:58:39;97322.25;;;22.39;65.44
59831;BME280;45711;50.108;13.712;2023-07-29T09:01:05;97315.81;;;22.88;63.88
59831;BME280;45711;50.108;13.712;2023-07-29T09:03:36;97323.13;;;22.17;64.56
59831;BME280;45711;50.108;13.712;2023-07-29T09:06:02;97324.53;;;22.33;64.49
59831;BME280;45711;50.108;13.712;2023-07-29T09:08:29;97318.06;;;22.19;64.05
59831;BME280;45711;50.108;13.712;2023-07-29T09:10:55;97311.06;;;21.65;66.54
59831;BME280;45711;50.108;13.712;2023-07-29T09:13:21;97324.22;;;21.86;66.43
59831;BME280;45711;50.108;13.712;2023-07-29T09:15:47;97325.50;;;23.19;63.64
59831;BME280;45711;50.108;13.712;2023-07-29T09:18:26;97314.00;;;22.99;61.11
59831;BME280;45711;50.108;13.712;2023-07-29T09:20:54;97318.47;;;22.17;63.94
59831;BME280;45711;50.108;13.712;2023-07-29T09:23:19;97316.00;;;21.59;66.66
59831;BME280;45711;50.108;13.712;2023-07-29T09:25:46;97322.00;;;21.45;67.30
59831;BME280;45711;50.108;13.712;2023-07-29T09:28:14;97307.50;;;22.77;64.15
59831;BME280;45711;50.108;13.712;2023-07-29T09:30:41;97319.03;;;23.35;62.08
59831;BME280;45711;50.108;13.712;2023-07-29T09:33:08;97307.19;;;23.64;61.44
59831;BME280;45711;50.108;13.712;2023-07-29T09:35:36;97307.56;;;22.84;62.49
59831;BME280;45711;50.108;13.712;2023-07-29T09:38:04;97303.47;;;23.39;61.12
59831;BME280;45711;50.108;13.712;2023-07-29T09:40:34;97310.69;;;21.93;65.36
59831;BME280;45711;50.108;13.712;2023-07-29T09:43:01;97308.16;;;22.67;63.66
59831;BME280;45711;50.108;13.712;2023-07-29T09:45:34;97311.09;;;23.22;62.27
59831;BME280;45711;50.108;13.712;2023-07-29T09:48:02;97312.19;;;22.43;62.81
59831;BME280;45711;50.108;13.712;2023-07-29T09:50:30;97312.69;;;21.96;64.98
59831;BME280;45711;50.108;13.712;2023-07-29T09:52:57;97299.16;;;22.29;64.72
59831;BME280;45711;50.108;13.712;2023-07-29T09:55:27;97302.34;;;22.35;64.21
59831;BME280;45711;50.108;13.712;2023-07-29T09:57:54;97297.06;;;21.66;66.68
59831;BME280;45711;50.108;13.712;2023-07-29T10:00:19;97305.69;;;21.98;65.23
59831;BME280;45711;50.108;13.712;2023-07-29T10:02:45;97302.56;;;21.70;66.47
59831;BME280;45711;50.108;13.712;2023-07-29T10:05:11;97302.63;;;21.50;67.09
59831;BME280;45711;50.108;13.712;2023-07-29T10:07:38;97307.28;;;21.73;66.71
59831;BME280;45711;50.108;13.712;2023-07-29T10:10:05;97331.16;;;21.33;68.40
59831;BME280;45711;50.108;13.712;2023-07-29T10:12:34;97346.41;;;21.19;70.53
59831;BME280;45711;50.108;13.712;2023-07-29T10:15:02;97345.06;;;21.09;74.15
59831;BME280;45711;50.108;13.712;2023-07-29T10:17:29;97351.75;;;21.12;73.05
59831;BME280;45711;50.108;13.712;2023-07-29T10:19:56;97345.00;;;21.05;74.62
59831;BME280;45711;50.108;13.712;2023-07-29T10:22:25;97334.06;;;21.02;72.47
59831;BME280;45711;50.108;13.712;2023-07-29T10:24:54;97340.16;;;20.95;74.37
59831;BME280;45711;50.108;13.712;2023-07-29T10:27:21;97335.19;;;21.01;74.84
59831;BME280;45711;50.108;13.712;2023-07-29T10:29:50;97351.97;;;21.03;74.93
59831;BME280;45711;50.108;13.712;2023-07-29T10:32:24;97348.25;;;20.92;75.15
59831;BME280;45711;50.108;13.712;2023-07-29T10:34:50;97340.94;;;20.96;76.88
59831;BME280;45711;50.108;13.712;2023-07-29T10:37:16;97338.38;;;21.03;76.21
59831;BME280;45711;50.108;13.712;2023-07-29T10:39:52;97342.88;;;20.76;79.72
59831;BME280;45711;50.108;13.712;2023-07-29T10:42:18;97338.22;;;20.96;77.97
59831;BME280;45711;50.108;13.712;2023-07-29T10:44:52;97338.41;;;21.06;76.22
59831;BME280;45711;50.108;13.712;2023-07-29T10:47:20;97355.31;;;20.96;77.37
59831;BME280;45711;50.108;13.712;2023-07-29T10:49:47;97350.13;;;21.11;75.13
59831;BME280;45711;50.108;13.712;2023-07-29T10:52:13;97359.69;;;21.01;76.54
59831;BME280;45711;50.108;13.712;2023-07-29T10:54:44;97368.94;;;20.77;82.79
59831;BME280;45711;50.108;13.712;2023-07-29T10:57:14;97347.84;;;20.90;80.92
59831;BME280;45711;50.108;13.712;2023-07-29T10:59:55;97340.47;;;21.13;75.18
59831;BME280;45711;50.108;13.712;2023-07-29T11:02:32;97342.75;;;21.11;74.99
59831;BME280;45711;50.108;13.712;2023-07-29T11:04:58;97362.03;;;21.02;82.87
59831;BME280;45711;50.108;13.712;2023-07-29T11:07:26;97351.78;;;21.15;82.63
59831;BME280;45711;50.108;13.712;2023-07-29T11:09:56;97336.22;;;20.93;79.64
59831;BME280;45711;50.108;13.712;2023-07-29T11:12:39;97339.56;;;21.05;81.66
59831;BME280;45711;50.108;13.712;2023-07-29T11:15:20;97326.09;;;21.13;75.90
59831;BME280;45711;50.108;13.712;2023-07-29T11:17:47;97326.06;;;20.90;79.58
59831;BME280;45711;50.108;13.712;2023-07-29T11:20:18;97335.75;;;21.10;80.33
59831;BME280;45711;50.108;13.712;2023-07-29T11:22:44;97335.19;;;21.20;77.96
59831;BME280;45711;50.108;13.712;2023-07-29T11:25:13;97327.66;;;21.14;75.98
59831;BME280;45711;50.108;13.712;2023-07-29T11:27:39;97327.19;;;21.08;77.85
59831;BME280;45711;50.108;13.712;2023-07-29T11:30:08;97326.03;;;21.09;74.74
59831;BME280;45711;50.108;13.712;2023-07-29T11:32:36;97328.97;;;21.00;78.85
59831;BME280;45711;50.108;13.712;2023-07-29T11:35:04;97317.88;;;21.09;75.65
59831;BME280;45711;50.108;13.712;2023-07-29T11:37:29;97329.13;;;21.07;76.47
59831;BME280;45711;50.108;13.712;2023-07-29T11:39:55;97318.66;;;21.09;76.23
59831;BME280;45711;50.108;13.712;2023-07-29T11:42:21;97322.63;;;21.16;75.60
59831;BME280;45711;50.108;13.712;2023-07-29T11:44:46;97315.22;;;21.13;77.08
59831;BME280;45711;50.108;13.712;2023-07-29T11:47:12;97321.84;;;21.15;76.53
59831;BME280;45711;50.108;13.712;2023-07-29T11:49:40;97325.13;;;21.24;75.27
59831;BME280;45711;50.108;13.712;2023-07-29T11:52:07;97312.31;;;21.25;75.78
59831;BME280;45711;50.108;13.712;2023-07-29T11:54:34;97310.53;;;21.32;76.07
59831;BME280;45711;50.108;13.712;2023-07-29T11:57:00;97313.25;;;21.32;78.49
59831;BME280;45711;50.108;13.712;2023-07-29T11:59:27;97310.78;;;21.27;77.69
59831;BME280;45711;50.108;13.712;2023-07-29T12:01:53;97313.88;;;21.03;82.95
59831;BME280;45711;50.108;13.712;2023-07-29T12:04:19;97294.38;;;21.20;78.01
59831;BME280;45711;50.108;13.712;2023-07-29T12:06:46;97292.25;;;21.33;76.09
59831;BME280;45711;50.108;13.712;2023-07-29T12:09:12;97288.09;;;21.39;76.87
59831;BME280;45711;50.108;13.712;2023-07-29T12:11:38;97286.69;;;21.26;77.73
59831;BME280;45711;50.108;13.712;2023-07-29T12:14:07;97277.66;;;21.22;75.48
59831;BME280;45711;50.108;13.712;2023-07-29T12:16:40;97279.09;;;21.35;77.87
59831;BME280;45711;50.108;13.712;2023-07-29T12:19:06;97270.22;;;21.42;75.99
59831;BME280;45711;50.108;13.712;2023-07-29T12:21:31;97268.00;;;21.47;77.53
59831;BME280;45711;50.108;13.712;2023-07-29T12:23:59;97270.78;;;21.51;80.15
59831;BME280;45711;50.108;13.712;2023-07-29T12:26:27;97268.22;;;21.62;78.67
59831;BME280;45711;50.108;13.712;2023-07-29T12:28:53;97263.59;;;21.39;80.24
59831;BME280;45711;50.108;13.712;2023-07-29T12:31:19;97249.44;;;21.30;77.30
59831;BME280;45711;50.108;13.712;2023-07-29T12:33:44;97259.00;;;21.20;75.77
59831;BME280;45711;50.108;13.712;2023-07-29T12:36:10;97251.94;;;21.39;76.20
59831;BME280;45711;50.108;13.712;2023-07-29T12:38:36;97248.28;;;21.31;74.67
59831;BME280;45711;50.108;13.712;2023-07-29T12:41:03;97244.75;;;21.53;75.61
59831;BME280;45711;50.108;13.712;2023-07-29T12:43:28;97248.44;;;21.65;78.40
59831;BME280;45711;50.108;13.712;2023-07-29T12:45:54;97241.50;;;21.44;75.36
59831;BME280;45711;50.108;13.712;2023-07-29T12:48:20;97256.94;;;21.63;76.66
59831;BME280;45711;50.108;13.712;2023-07-29T12:50:46;97244.41;;;21.55;75.20
59831;BME280;45711;50.108;13.712;2023-07-29T12:53:15;97242.75;;;21.50;74.53
59831;BME280;45711;50.108;13.712;2023-07-29T12:55:44;97245.72;;;21.42;74.92
59831;BME280;45711;50.108;13.712;2023-07-29T12:58:11;97244.34;;;21.51;74.08
59831;BME280;45711;50.108;13.712;2023-07-29T13:00:36;97232.09;;;21.65;74.04
59831;BME280;45711;50.108;13.712;2023-07-29T13:03:03;97236.78;;;21.41;74.79
59831;BME280;45711;50.108;13.712;2023-07-29T13:05:31;97233.94;;;21.57;75.00